sensor_id;sensor_type;location;lat;lon;timestamp;pressure;altitude;pressure_sealevel;temperature;humidity
30021;BME280;16861;52.294;7.760;2023-06-22T00:01:23;100184.28;;;23.54;50.09
30021;BME280;16861;52.294;7.760;2023-06-22T00:03:50;100187.13;;;23.52;49.90
30021;BME280;16861;52.294;7.760;2023-06-22T00:06:17;100191.00;;;23.50;50.48
30021;BME280;16861;52.294;7.760;2023-06-22T00:08:44;100184.94;;;23.48;50.24
30021;BME280;16861;52.294;7.760;2023-06-22T00:11:11;100186.13;;;23.45;50.39
30021;BME280;16861;52.294;7.760;2023-06-22T00:13:38;100177.53;;;23.41;50.23
30021;BME280;16861;52.294;7.760;2023-06-22T00:18:37;100181.72;;;23.36;50.38
30021;BME280;16861;52.294;7.760;2023-06-22T00:21:03;100182.00;;;23.33;50.59
30021;BME280;16861;52.294;7.760;2023-06-22T00:23:30;100178.63;;;23.30;50.65
30021;BME280;16861;52.294;7.760;2023-06-22T00:26:00;100177.09;;;23.28;50.63
30021;BME280;16861;52.294;7.760;2023-06-22T00:28:28;100154.94;;;23.26;50.59
30021;BME280;16861;52.294;7.760;2023-06-22T00:30:55;100156.78;;;23.25;50.99
30021;BME280;16861;52.294;7.760;2023-06-22T00:33:22;100159.81;;;23.22;50.97
30021;BME280;16861;52.294;7.760;2023-06-22T00:35:48;100156.44;;;23.20;50.48
30021;BME280;16861;52.294;7.760;2023-06-22T00:38:19;100142.34;;;23.18;50.97
30021;BME280;16861;52.294;7.760;2023-06-22T00:40:46;100154.06;;;23.17;50.77
30021;BME280;16861;52.294;7.760;2023-06-22T00:43:12;100150.84;;;23.13;50.66
30021;BME280;16861;52.294;7.760;2023-06-22T00:45:38;100142.28;;;23.10;50.79
30021;BME280;16861;52.294;7.760;2023-06-22T00:48:06;100142.75;;;23.05;51.21
30021;BME280;16861;52.294;7.760;2023-06-22T00:50:33;100146.44;;;23.04;51.25
30021;BME280;16861;52.294;7.760;2023-06-22T00:53:09;100141.56;;;22.99;51.74
30021;BME280;16861;52.294;7.760;2023-06-22T00:55:38;100131.66;;;23.00;51.32
30021;BME280;16861;52.294;7.760;2023-06-22T00:58:09;100128.13;;;22.99;51.46
30021;BME280;16861;52.294;7.760;2023-06-22T01:00:41;100122.25;;;22.96;51.88
30021;BME280;16861;52.294;7.760;2023-06-22T01:03:08;100130.16;;;22.97;51.25
30021;BME280;16861;52.294;7.760;2023-06-22T01:05:37;100127.78;;;22.94;51.42
30021;BME280;16861;52.294;7.760;2023-06-22T01:08:23;100118.19;;;22.91;51.40
30021;BME280;16861;52.294;7.760;2023-06-22T01:11:01;100125.41;;;22.91;51.40
30021;BME280;16861;52.294;7.760;2023-06-22T01:16:25;100137.63;;;22.85;51.65
30021;BME280;16861;52.294;7.760;2023-06-22T01:18:55;100129.03;;;22.82;51.85
30021;BME280;16861;52.294;7.760;2023-06-22T01:21:26;100132.72;;;22.81;51.84
30021;BME280;16861;52.294;7.760;2023-06-22T01:26:39;100134.34;;;22.73;52.37
30021;BME280;16861;52.294;7.760;2023-06-22T01:29:10;100134.34;;;22.73;52.09
30021;BME280;16861;52.294;7.760;2023-06-22T01:31:39;100134.53;;;22.72;51.48
30021;BME280;16861;52.294;7.760;2023-06-22T01:34:08;100131.31;;;22.68;51.70
30021;BME280;16861;52.294;7.760;2023-06-22T01:36:35;100126.09;;;22.67;51.55
30021;BME280;16861;52.294;7.760;2023-06-22T01:39:02;100134.47;;;22.63;51.75
30021;BME280;16861;52.294;7.760;2023-06-22T01:41:36;100131.41;;;22.58;52.64
30021;BME280;16861;52.294;7.760;2023-06-22T01:44:07;100124.53;;;22.56;52.14
30021;BME280;16861;52.294;7.760;2023-06-22T01:46:35;100126.38;;;22.55;51.86
30021;BME280;16861;52.294;7.760;2023-06-22T01:49:03;100131.00;;;22.53;52.25
30021;BME280;16861;52.294;7.760;2023-06-22T01:51:30;100125.97;;;22.50;52.21
30021;BME280;16861;52.294;7.760;2023-06-22T01:53:57;100126.13;;;22.48;52.05
30021;BME280;16861;52.294;7.760;2023-06-22T01:56:23;100123.59;;;22.47;52.36
30021;BME280;16861;52.294;7.760;2023-06-22T01:58:57;100132.81;;;22.44;52.87
30021;BME280;16861;52.294;7.760;2023-06-22T02:01:31;100130.44;;;22.41;52.71
30021;BME280;16861;52.294;7.760;2023-06-22T02:04:13;100133.56;;;22.36;52.73
30021;BME280;16861;52.294;7.760;2023-06-22T02:06:42;100131.75;;;22.37;52.71
30021;BME280;16861;52.294;7.760;2023-06-22T02:09:15;100132.03;;;22.34;52.59
30021;BME280;16861;52.294;7.760;2023-06-22T02:11:44;100132.19;;;22.32;52.63
30021;BME280;16861;52.294;7.760;2023-06-22T02:14:12;100123.31;;;22.32;52.63
30021;BME280;16861;52.294;7.760;2023-06-22T02:16:40;100128.84;;;22.30;52.57
30021;BME280;16861;52.294;7.760;2023-06-22T02:19:08;100130.84;;;22.28;52.71
30021;BME280;16861;52.294;7.760;2023-06-22T02:21:34;100132.81;;;22.26;52.67
30021;BME280;16861;52.294;7.760;2023-06-22T02:24:00;100128.63;;;22.23;52.61
30021;BME280;16861;52.294;7.760;2023-06-22T02:26:27;100129.91;;;22.19;52.69
30021;BME280;16861;52.294;7.760;2023-06-22T02:28:54;100130.22;;;22.16;52.63
30021;BME280;16861;52.294;7.760;2023-06-22T02:31:20;100128.69;;;22.13;52.71
30021;BME280;16861;52.294;7.760;2023-06-22T02:33:47;100128.16;;;22.10;53.00
30021;BME280;16861;52.294;7.760;2023-06-22T02:36:14;100127.78;;;22.05;53.06
30021;BME280;16861;52.294;7.760;2023-06-22T02:38:41;100125.25;;;22.03;53.15
30021;BME280;16861;52.294;7.760;2023-06-22T02:41:14;100125.56;;;22.00;52.24
30021;BME280;16861;52.294;7.760;2023-06-22T02:43:47;100120.91;;;22.02;52.94
30021;BME280;16861;52.294;7.760;2023-06-22T02:46:13;100124.72;;;21.99;53.02
30021;BME280;16861;52.294;7.760;2023-06-22T02:48:40;100124.19;;;21.96;53.07
30021;BME280;16861;52.294;7.760;2023-06-22T02:51:07;100143.25;;;21.93;53.24
30021;BME280;16861;52.294;7.760;2023-06-22T02:53:33;100129.16;;;21.91;53.34
30021;BME280;16861;52.294;7.760;2023-06-22T02:56:02;100141.03;;;21.88;53.54
30021;BME280;16861;52.294;7.760;2023-06-22T02:58:32;100140.31;;;21.86;53.42
30021;BME280;16861;52.294;7.760;2023-06-22T03:01:07;100138.66;;;21.85;52.33
30021;BME280;16861;52.294;7.760;2023-06-22T03:03:34;100134.00;;;21.87;52.95
30021;BME280;16861;52.294;7.760;2023-06-22T03:06:00;100134.16;;;21.85;53.13
30021;BME280;16861;52.294;7.760;2023-06-22T03:08:28;100134.59;;;21.81;53.43
30021;BME280;16861;52.294;7.760;2023-06-22T03:10:55;100127.56;;;21.80;53.63
30021;BME280;16861;52.294;7.760;2023-06-22T03:13:22;100132.19;;;21.78;53.71
30021;BME280;16861;52.294;7.760;2023-06-22T03:15:48;100129.84;;;21.74;53.65
30021;BME280;16861;52.294;7.760;2023-06-22T03:18:15;100124.63;;;21.73;53.87
30021;BME280;16861;52.294;7.760;2023-06-22T03:20:42;100127.44;;;21.71;53.88
30021;BME280;16861;52.294;7.760;2023-06-22T03:23:08;100128.44;;;21.70;54.23
30021;BME280;16861;52.294;7.760;2023-06-22T03:25:35;100131.25;;;21.69;54.27
30021;BME280;16861;52.294;7.760;2023-06-22T03:28:01;100134.94;;;21.68;53.92
30021;BME280;16861;52.294;7.760;2023-06-22T03:30:28;100135.91;;;21.67;54.25
30021;BME280;16861;52.294;7.760;2023-06-22T03:32:55;100131.56;;;21.66;54.39
30021;BME280;16861;52.294;7.760;2023-06-22T03:35:21;100123.66;;;21.64;54.41
30021;BME280;16861;52.294;7.760;2023-06-22T03:37:49;100127.06;;;21.66;54.36
30021;BME280;16861;52.294;7.760;2023-06-22T03:40:15;100127.06;;;21.66;54.42
30021;BME280;16861;52.294;7.760;2023-06-22T03:42:42;100127.06;;;21.66;54.50
30021;BME280;16861;52.294;7.760;2023-06-22T03:45:08;100126.06;;;21.67;54.45
30021;BME280;16861;52.294;7.760;2023-06-22T03:47:35;100127.72;;;21.68;54.41
30021;BME280;16861;52.294;7.760;2023-06-22T03:50:02;100126.06;;;21.67;54.44
30021;BME280;16861;52.294;7.760;2023-06-22T03:52:30;100121.53;;;21.68;54.38
30021;BME280;16861;52.294;7.760;2023-06-22T03:54:56;100121.53;;;21.68;54.54
30021;BME280;16861;52.294;7.760;2023-06-22T03:57:23;100114.34;;;21.68;54.78
30021;BME280;16861;52.294;7.760;2023-06-22T03:59:49;100124.06;;;21.69;54.64
30021;BME280;16861;52.294;7.760;2023-06-22T04:02:16;100119.53;;;21.70;54.65
30021;BME280;16861;52.294;7.760;2023-06-22T04:04:42;100123.91;;;21.71;54.73
30021;BME280;16861;52.294;7.760;2023-06-22T04:07:09;100119.28;;;21.73;54.55
30021;BME280;16861;52.294;7.760;2023-06-22T04:09:35;100120.25;;;21.72;54.60
30021;BME280;16861;52.294;7.760;2023-06-22T04:12:02;100117.72;;;21.70;54.41
30021;BME280;16861;52.294;7.760;2023-06-22T04:14:28;100127.44;;;21.71;54.45
30021;BME280;16861;52.294;7.760;2023-06-22T04:16:55;100122.06;;;21.71;54.46
30021;BME280;16861;52.294;7.760;2023-06-22T04:19:21;100123.06;;;21.70;54.36
30021;BME280;16861;52.294;7.760;2023-06-22T04:21:48;100124.06;;;21.69;54.37
30021;BME280;16861;52.294;7.760;2023-06-22T04:24:15;100123.38;;;21.67;54.58
30021;BME280;16861;52.294;7.760;2023-06-22T04:26:41;100120.00;;;21.65;54.59
30021;BME280;16861;52.294;7.760;2023-06-22T04:29:13;100109.44;;;21.64;54.71
30021;BME280;16861;52.294;7.760;2023-06-22T04:31:39;100113.13;;;21.63;54.52
30021;BME280;16861;52.294;7.760;2023-06-22T04:34:07;100112.41;;;21.60;54.72
30021;BME280;16861;52.294;7.760;2023-06-22T04:36:35;100108.88;;;21.60;54.94
30021;BME280;16861;52.294;7.760;2023-06-22T04:39:11;100110.88;;;21.58;55.68
30021;BME280;16861;52.294;7.760;2023-06-22T04:41:38;100117.47;;;21.64;55.13
30021;BME280;16861;52.294;7.760;2023-06-22T04:44:12;100115.34;;;21.67;55.19
30021;BME280;16861;52.294;7.760;2023-06-22T04:46:39;100117.72;;;21.70;55.05
30021;BME280;16861;52.294;7.760;2023-06-22T04:49:09;100122.81;;;21.73;55.41
30021;BME280;16861;52.294;7.760;2023-06-22T04:51:40;100119.81;;;21.77;55.29
30021;BME280;16861;52.294;7.760;2023-06-22T04:54:08;100108.66;;;21.81;54.96
30021;BME280;16861;52.294;7.760;2023-06-22T04:56:35;100110.19;;;21.84;54.74
30021;BME280;16861;52.294;7.760;2023-06-22T04:59:02;100110.03;;;21.85;54.74
30021;BME280;16861;52.294;7.760;2023-06-22T05:01:29;100108.88;;;21.88;54.63
30021;BME280;16861;52.294;7.760;2023-06-22T05:03:58;100106.88;;;21.90;55.11
30021;BME280;16861;52.294;7.760;2023-06-22T05:06:27;100099.53;;;21.92;54.81
30021;BME280;16861;52.294;7.760;2023-06-22T05:08:55;100100.22;;;21.94;54.81
30021;BME280;16861;52.294;7.760;2023-06-22T05:11:28;100097.38;;;21.96;54.73
30021;BME280;16861;52.294;7.760;2023-06-22T05:13:55;100100.59;;;21.99;54.78
30021;BME280;16861;52.294;7.760;2023-06-22T05:16:22;100095.94;;;22.02;54.86
30021;BME280;16861;52.294;7.760;2023-06-22T05:18:53;100099.84;;;22.07;54.99
30021;BME280;16861;52.294;7.760;2023-06-22T05:21:25;100094.00;;;22.12;55.07
30021;BME280;16861;52.294;7.760;2023-06-22T05:23:56;100091.88;;;22.16;55.28
30021;BME280;16861;52.294;7.760;2023-06-22T05:26:26;100094.63;;;22.24;54.76
30021;BME280;16861;52.294;7.760;2023-06-22T05:28:53;100096.66;;;22.30;54.96
30021;BME280;16861;52.294;7.760;2023-06-22T05:31:20;100092.66;;;22.34;54.76
30021;BME280;16861;52.294;7.760;2023-06-22T05:33:47;100103.91;;;22.38;54.60
30021;BME280;16861;52.294;7.760;2023-06-22T05:36:15;100101.59;;;22.43;54.59
30021;BME280;16861;52.294;7.760;2023-06-22T05:38:41;100100.28;;;22.47;54.08
30021;BME280;16861;52.294;7.760;2023-06-22T05:41:08;100098.16;;;22.51;54.21
30021;BME280;16861;52.294;7.760;2023-06-22T05:43:34;100091.78;;;22.52;54.12
30021;BME280;16861;52.294;7.760;2023-06-22T05:46:01;100092.44;;;22.54;54.28
30021;BME280;16861;52.294;7.760;2023-06-22T05:48:28;100098.69;;;22.55;54.40
30021;BME280;16861;52.294;7.760;2023-06-22T05:50:54;100100.50;;;22.54;54.21
30021;BME280;16861;52.294;7.760;2023-06-22T05:53:21;100090.66;;;22.55;54.00
30021;BME280;16861;52.294;7.760;2023-06-22T05:55:48;100101.22;;;22.56;54.25
30021;BME280;16861;52.294;7.760;2023-06-22T05:58:14;100092.88;;;22.59;54.34
30021;BME280;16861;52.294;7.760;2023-06-22T06:00:41;100096.22;;;22.61;54.15
30021;BME280;16861;52.294;7.760;2023-06-22T06:03:09;100091.38;;;22.65;54.20
30021;BME280;16861;52.294;7.760;2023-06-22T06:05:38;100089.22;;;22.69;54.11
30021;BME280;16861;52.294;7.760;2023-06-22T06:08:06;100086.25;;;22.72;54.08
30021;BME280;16861;52.294;7.760;2023-06-22T06:10:33;100086.59;;;22.77;53.94
30021;BME280;16861;52.294;7.760;2023-06-22T06:13:00;100097.69;;;22.82;54.39
30021;BME280;16861;52.294;7.760;2023-06-22T06:15:28;100091.66;;;22.88;54.25
30021;BME280;16861;52.294;7.760;2023-06-22T06:20:25;100100.78;;;22.96;54.48
30021;BME280;16861;52.294;7.760;2023-06-22T06:22:54;100094.09;;;23.00;54.41
30021;BME280;16861;52.294;7.760;2023-06-22T06:25:22;100091.91;;;23.03;54.21
30021;BME280;16861;52.294;7.760;2023-06-22T06:27:50;100099.34;;;23.10;54.45
30021;BME280;16861;52.294;7.760;2023-06-22T06:30:18;100096.00;;;23.16;54.49
30021;BME280;16861;52.294;7.760;2023-06-22T06:32:46;100094.50;;;23.22;54.45
30021;BME280;16861;52.294;7.760;2023-06-22T06:35:13;100099.22;;;23.28;54.55
30021;BME280;16861;52.294;7.760;2023-06-22T06:37:43;100101.97;;;23.36;54.69
30021;BME280;16861;52.294;7.760;2023-06-22T06:40:11;100099.31;;;23.45;54.09
30021;BME280;16861;52.294;7.760;2023-06-22T06:42:44;100098.47;;;23.52;54.32
30021;BME280;16861;52.294;7.760;2023-06-22T06:45:12;100097.31;;;23.63;54.20
30021;BME280;16861;52.294;7.760;2023-06-22T06:47:39;100096.34;;;23.73;54.27
30021;BME280;16861;52.294;7.760;2023-06-22T06:50:07;100094.50;;;23.81;54.10
30021;BME280;16861;52.294;7.760;2023-06-22T06:52:34;100089.81;;;23.92;53.78
30021;BME280;16861;52.294;7.760;2023-06-22T06:55:04;100094.19;;;24.01;53.59
30021;BME280;16861;52.294;7.760;2023-06-22T06:57:31;100094.03;;;24.11;53.78
30021;BME280;16861;52.294;7.760;2023-06-22T07:00:00;100097.41;;;24.22;53.40
30021;BME280;16861;52.294;7.760;2023-06-22T07:02:26;100093.88;;;24.29;52.97
30021;BME280;16861;52.294;7.760;2023-06-22T07:04:54;100102.09;;;24.36;52.80
30021;BME280;16861;52.294;7.760;2023-06-22T07:07:23;100094.03;;;24.44;53.00
30021;BME280;16861;52.294;7.760;2023-06-22T07:09:50;100094.88;;;24.53;52.69
30021;BME280;16861;52.294;7.760;2023-06-22T07:12:16;100088.78;;;24.59;52.73
30021;BME280;16861;52.294;7.760;2023-06-22T07:14:43;100098.69;;;24.67;52.38
30021;BME280;16861;52.294;7.760;2023-06-22T07:17:09;100100.53;;;24.75;52.33
30021;BME280;16861;52.294;7.760;2023-06-22T07:19:36;100104.06;;;24.84;52.54
30021;BME280;16861;52.294;7.760;2023-06-22T07:22:03;100100.47;;;24.92;52.11
30021;BME280;16861;52.294;7.760;2023-06-22T07:24:29;100089.03;;;24.98;52.00
30021;BME280;16861;52.294;7.760;2023-06-22T07:26:56;100084.63;;;25.05;52.35
30021;BME280;16861;52.294;7.760;2023-06-22T07:29:25;100079.41;;;25.12;52.08
30021;BME280;16861;52.294;7.760;2023-06-22T07:31:53;100087.59;;;25.19;52.37
30021;BME280;16861;52.294;7.760;2023-06-22T07:34:19;100077.78;;;25.26;52.11
30021;BME280;16861;52.294;7.760;2023-06-22T07:36:46;100078.59;;;25.35;51.98
30021;BME280;16861;52.294;7.760;2023-06-22T07:39:13;100068.75;;;25.42;51.92
30021;BME280;16861;52.294;7.760;2023-06-22T07:41:40;100067.72;;;25.52;52.30
30021;BME280;16861;52.294;7.760;2023-06-22T07:44:07;100073.91;;;25.60;52.09
30021;BME280;16861;52.294;7.760;2023-06-22T07:46:34;100068.47;;;25.69;51.46
30021;BME280;16861;52.294;7.760;2023-06-22T07:49:01;100072.78;;;25.78;51.46
30021;BME280;16861;52.294;7.760;2023-06-22T07:51:28;100060.44;;;25.84;51.12
30021;BME280;16861;52.294;7.760;2023-06-22T07:53:54;100058.88;;;25.89;50.91
30021;BME280;16861;52.294;7.760;2023-06-22T07:56:21;100070.59;;;25.97;51.00
30021;BME280;16861;52.294;7.760;2023-06-22T07:58:47;100064.84;;;26.00;50.94
30021;BME280;16861;52.294;7.760;2023-06-22T08:01:14;100068.03;;;26.04;51.11
30021;BME280;16861;52.294;7.760;2023-06-22T08:03:41;100057.72;;;26.07;50.93
30021;BME280;16861;52.294;7.760;2023-06-22T08:06:08;100056.50;;;26.10;50.62
30021;BME280;16861;52.294;7.760;2023-06-22T08:08:36;100065.06;;;26.13;50.74
30021;BME280;16861;52.294;7.760;2023-06-22T08:11:02;100057.66;;;26.15;50.44
30021;BME280;16861;52.294;7.760;2023-06-22T08:13:29;100058.47;;;26.16;50.69
30021;BME280;16861;52.294;7.760;2023-06-22T08:15:55;100058.47;;;26.16;50.25
30021;BME280;16861;52.294;7.760;2023-06-22T08:18:22;100058.47;;;26.16;50.21
30021;BME280;16861;52.294;7.760;2023-06-22T08:20:48;100049.56;;;26.15;50.38
30021;BME280;16861;52.294;7.760;2023-06-22T08:23:15;100053.91;;;26.17;50.19
30021;BME280;16861;52.294;7.760;2023-06-22T08:25:42;100063.50;;;26.19;50.67
30021;BME280;16861;52.294;7.760;2023-06-22T08:28:09;100062.28;;;26.22;50.12
30021;BME280;16861;52.294;7.760;2023-06-22T08:30:35;100052.19;;;26.24;50.24
30021;BME280;16861;52.294;7.760;2023-06-22T08:33:02;100058.91;;;26.28;50.03
30021;BME280;16861;52.294;7.760;2023-06-22T08:35:30;100052.47;;;26.29;49.72
30021;BME280;16861;52.294;7.760;2023-06-22T08:37:57;100053.78;;;26.33;49.85
30021;BME280;16861;52.294;7.760;2023-06-22T08:40:25;100054.44;;;26.35;49.86
30021;BME280;16861;52.294;7.760;2023-06-22T08:42:52;100054.06;;;26.38;49.75
30021;BME280;16861;52.294;7.760;2023-06-22T08:45:18;100058.09;;;26.43;49.65
30021;BME280;16861;52.294;7.760;2023-06-22T08:47:45;100051.47;;;26.45;50.13
30021;BME280;16861;52.294;7.760;2023-06-22T08:50:12;100057.31;;;26.49;49.94
30021;BME280;16861;52.294;7.760;2023-06-22T08:52:39;100056.78;;;26.53;49.43
30021;BME280;16861;52.294;7.760;2023-06-22T08:55:10;100043.75;;;26.57;49.85
30021;BME280;16861;52.294;7.760;2023-06-22T08:57:37;100044.22;;;26.61;49.59
30021;BME280;16861;52.294;7.760;2023-06-22T09:00:08;100036.94;;;26.61;49.55
30021;BME280;16861;52.294;7.760;2023-06-22T09:02:42;100036.41;;;26.66;49.17
30021;BME280;16861;52.294;7.760;2023-06-22T09:05:09;100028.94;;;26.68;49.36
30021;BME280;16861;52.294;7.760;2023-06-22T09:07:36;100019.00;;;26.69;49.04
30021;BME280;16861;52.294;7.760;2023-06-22T09:10:03;100017.13;;;26.69;49.39
30021;BME280;16861;52.294;7.760;2023-06-22T09:12:33;100010.88;;;26.69;49.49
30021;BME280;16861;52.294;7.760;2023-06-22T09:15:00;100013.59;;;26.69;49.54
30021;BME280;16861;52.294;7.760;2023-06-22T09:17:27;100002.59;;;26.70;49.68
30021;BME280;16861;52.294;7.760;2023-06-22T09:19:54;100005.94;;;26.72;49.51
30021;BME280;16861;52.294;7.760;2023-06-22T09:22:20;99998.50;;;26.74;49.31
30021;BME280;16861;52.294;7.760;2023-06-22T09:24:47;99994.59;;;26.77;49.37
30021;BME280;16861;52.294;7.760;2023-06-22T09:27:13;99992.16;;;26.82;49.40
30021;BME280;16861;52.294;7.760;2023-06-22T09:29:40;100005.09;;;26.87;49.72
30021;BME280;16861;52.294;7.760;2023-06-22T09:32:07;100008.06;;;26.92;49.39
30021;BME280;16861;52.294;7.760;2023-06-22T09:34:33;99998.59;;;26.96;49.00
30021;BME280;16861;52.294;7.760;2023-06-22T09:37:00;100001.56;;;27.01;49.13
30021;BME280;16861;52.294;7.760;2023-06-22T09:39:27;100003.69;;;27.06;49.08
30021;BME280;16861;52.294;7.760;2023-06-22T09:41:53;100007.47;;;27.12;48.95
30021;BME280;16861;52.294;7.760;2023-06-22T09:44:20;100009.63;;;27.16;49.00
30021;BME280;16861;52.294;7.760;2023-06-22T09:46:46;100003.44;;;27.23;48.63
30021;BME280;16861;52.294;7.760;2023-06-22T09:49:13;99991.03;;;27.28;49.19
30021;BME280;16861;52.294;7.760;2023-06-22T09:51:39;100003.56;;;27.36;49.17
30021;BME280;16861;52.294;7.760;2023-06-22T09:54:06;99999.94;;;27.44;48.99
30021;BME280;16861;52.294;7.760;2023-06-22T09:56:32;100002.50;;;27.52;48.36
30021;BME280;16861;52.294;7.760;2023-06-22T09:58:59;100007.97;;;27.59;48.48
30021;BME280;16861;52.294;7.760;2023-06-22T10:01:43;100005.34;;;27.66;48.01
30021;BME280;16861;52.294;7.760;2023-06-22T10:04:09;99994.78;;;27.71;47.89
30021;BME280;16861;52.294;7.760;2023-06-22T10:06:36;99995.03;;;27.76;47.76
30021;BME280;16861;52.294;7.760;2023-06-22T10:09:07;99996.97;;;27.82;47.99
30021;BME280;16861;52.294;7.760;2023-06-22T10:11:34;99989.09;;;27.88;47.65
30021;BME280;16861;52.294;7.760;2023-06-22T10:14:01;99986.63;;;27.93;47.50
30021;BME280;16861;52.294;7.760;2023-06-22T10:16:32;99983.72;;;27.94;47.01
30021;BME280;16861;52.294;7.760;2023-06-22T10:18:59;99981.06;;;28.01;47.55
30021;BME280;16861;52.294;7.760;2023-06-22T10:21:26;99981.50;;;28.05;47.29
30021;BME280;16861;52.294;7.760;2023-06-22T10:23:54;99983.44;;;28.11;47.69
30021;BME280;16861;52.294;7.760;2023-06-22T10:26:22;99982.63;;;28.17;47.78
30021;BME280;16861;52.294;7.760;2023-06-22T10:28:48;99980.81;;;28.25;47.34
30021;BME280;16861;52.294;7.760;2023-06-22T10:31:18;99975.28;;;28.33;47.56
30021;BME280;16861;52.294;7.760;2023-06-22T10:33:45;99975.53;;;28.45;47.59
30021;BME280;16861;52.294;7.760;2023-06-22T10:36:12;99968.72;;;28.56;47.28
30021;BME280;16861;52.294;7.760;2023-06-22T10:38:38;99969.16;;;28.66;47.05
30021;BME280;16861;52.294;7.760;2023-06-22T10:41:05;99965.66;;;28.72;46.69
30021;BME280;16861;52.294;7.760;2023-06-22T10:43:31;99965.69;;;28.79;46.34
30021;BME280;16861;52.294;7.760;2023-06-22T10:45:58;99970.47;;;28.84;46.09
30021;BME280;16861;52.294;7.760;2023-06-22T10:48:24;99971.31;;;28.84;45.63
30021;BME280;16861;52.294;7.760;2023-06-22T10:50:51;99975.06;;;28.83;45.81
30021;BME280;16861;52.294;7.760;2023-06-22T10:53:19;99976.31;;;28.81;46.04
30021;BME280;16861;52.294;7.760;2023-06-22T10:55:45;99971.69;;;28.74;45.29
30021;BME280;16861;52.294;7.760;2023-06-22T10:58:21;99973.53;;;28.67;45.75
30021;BME280;16861;52.294;7.760;2023-06-22T11:00:48;99969.97;;;28.60;45.47
30021;BME280;16861;52.294;7.760;2023-06-22T11:03:14;99973.69;;;28.52;45.89
30021;BME280;16861;52.294;7.760;2023-06-22T11:05:41;99971.78;;;28.46;45.40
30021;BME280;16861;52.294;7.760;2023-06-22T11:08:08;99966.97;;;28.41;45.53
30021;BME280;16861;52.294;7.760;2023-06-22T11:10:34;99960.31;;;28.37;46.07
30021;BME280;16861;52.294;7.760;2023-06-22T11:13:01;99954.44;;;28.33;46.25
30021;BME280;16861;52.294;7.760;2023-06-22T11:15:31;99934.03;;;28.31;46.22
30021;BME280;16861;52.294;7.760;2023-06-22T11:17:58;99942.97;;;28.31;46.01
30021;BME280;16861;52.294;7.760;2023-06-22T11:20:24;99935.69;;;28.32;46.18
30021;BME280;16861;52.294;7.760;2023-06-22T11:22:51;99949.88;;;28.34;46.16
30021;BME280;16861;52.294;7.760;2023-06-22T11:25:17;99939.66;;;28.36;46.14
30021;BME280;16861;52.294;7.760;2023-06-22T11:27:44;99932.38;;;28.37;46.02
30021;BME280;16861;52.294;7.760;2023-06-22T11:30:10;99933.84;;;28.39;46.05
30021;BME280;16861;52.294;7.760;2023-06-22T11:32:37;99933.00;;;28.39;46.35
30021;BME280;16861;52.294;7.760;2023-06-22T11:35:04;99928.44;;;28.39;46.58
30021;BME280;16861;52.294;7.760;2023-06-22T11:37:37;99933.66;;;28.41;46.79
30021;BME280;16861;52.294;7.760;2023-06-22T11:40:04;99926.34;;;28.41;46.58
30021;BME280;16861;52.294;7.760;2023-06-22T11:42:33;99910.75;;;28.43;46.48
30021;BME280;16861;52.294;7.760;2023-06-22T11:45:00;99907.84;;;28.45;46.52
30021;BME280;16861;52.294;7.760;2023-06-22T11:47:29;99897.63;;;28.47;46.47
30021;BME280;16861;52.294;7.760;2023-06-22T11:49:55;99897.84;;;28.52;46.43
30021;BME280;16861;52.294;7.760;2023-06-22T11:52:22;99891.84;;;28.57;46.62
30021;BME280;16861;52.294;7.760;2023-06-22T11:54:49;99880.41;;;28.61;46.50
30021;BME280;16861;52.294;7.760;2023-06-22T11:57:15;99885.00;;;28.68;46.71
30021;BME280;16861;52.294;7.760;2023-06-22T11:59:42;99885.44;;;28.78;46.38
30021;BME280;16861;52.294;7.760;2023-06-22T12:02:08;99887.38;;;28.91;46.75
30021;BME280;16861;52.294;7.760;2023-06-22T12:04:35;99882.19;;;29.10;46.97
30021;BME280;16861;52.294;7.760;2023-06-22T12:07:02;99877.22;;;29.34;47.01
30021;BME280;16861;52.294;7.760;2023-06-22T12:09:29;99880.97;;;29.60;46.56
30021;BME280;16861;52.294;7.760;2023-06-22T12:11:56;99881.31;;;29.90;46.33
30021;BME280;16861;52.294;7.760;2023-06-22T12:14:22;99874.81;;;30.19;45.76
30021;BME280;16861;52.294;7.760;2023-06-22T12:16:51;99865.91;;;30.43;44.41
30021;BME280;16861;52.294;7.760;2023-06-22T12:19:18;99863.91;;;30.64;44.56
30021;BME280;16861;52.294;7.760;2023-06-22T12:21:44;99866.19;;;30.74;44.12
30021;BME280;16861;52.294;7.760;2023-06-22T12:24:12;99872.63;;;30.80;43.42
30021;BME280;16861;52.294;7.760;2023-06-22T12:26:38;99866.56;;;30.78;43.44
30021;BME280;16861;52.294;7.760;2023-06-22T12:29:05;99873.91;;;30.71;42.77
30021;BME280;16861;52.294;7.760;2023-06-22T12:31:31;99873.94;;;30.64;42.78
30021;BME280;16861;52.294;7.760;2023-06-22T12:33:58;99869.59;;;30.56;42.83
30021;BME280;16861;52.294;7.760;2023-06-22T12:36:24;99876.13;;;30.48;42.63
30021;BME280;16861;52.294;7.760;2023-06-22T12:38:51;99871.16;;;30.38;42.80
30021;BME280;16861;52.294;7.760;2023-06-22T12:41:19;99878.28;;;30.33;42.60
30021;BME280;16861;52.294;7.760;2023-06-22T12:43:46;99876.84;;;30.23;42.68
30021;BME280;16861;52.294;7.760;2023-06-22T12:46:12;99871.06;;;30.13;43.19
30021;BME280;16861;52.294;7.760;2023-06-22T12:48:39;99868.97;;;30.01;42.80
30021;BME280;16861;52.294;7.760;2023-06-22T12:51:09;99874.22;;;29.89;43.33
30021;BME280;16861;52.294;7.760;2023-06-22T12:53:36;99866.94;;;29.76;43.09
30021;BME280;16861;52.294;7.760;2023-06-22T12:56:02;99870.31;;;29.65;43.23
30021;BME280;16861;52.294;7.760;2023-06-22T12:58:29;99860.50;;;29.50;43.54
30021;BME280;16861;52.294;7.760;2023-06-22T13:00:55;99859.47;;;29.38;43.62
30021;BME280;16861;52.294;7.760;2023-06-22T13:03:22;99859.25;;;29.26;43.59
30021;BME280;16861;52.294;7.760;2023-06-22T13:05:50;99859.69;;;29.16;44.26